Time,TemperatureF,DewpointF,PressureIn,WindDirection,WindDirectionDegrees,WindSpeedMPH,WindSpeedGustMPH,Humidity,HourlyPrecipIn,Conditions,Clouds,dailyrainin,SoftwareType,DateUTC
2013-09-05 00:02:00,48.7,48.7,29.65,NE,34,0.0,0.0,100,0.00,,,0.00,VWS V13.01,2013-09-05 04:02:00,
2013-09-05 00:08:00,48.7,48.7,29.65,NE,34,0.0,0.0,100,0.00,,,0.00,VWS V13.01,2013-09-05 04:08:00,
2013-09-05 00:10:00,48.7,48.7,29.65,NE,34,0.0,0.0,100,0.00,,,0.00,VWS V13.01,2013-09-05 04:10:00,
2013-09-05 00:12:00,48.7,48.7,29.65,NE,34,0.0,0.0,100,0.00,,,0.00,VWS V13.01,2013-09-05 04:12:00,
2013-09-05 00:14:00,48.7,48.7,29.65,NE,34,0.0,0.0,100,0.00,,,0.00,VWS V13.01,2013-09-05 04:14:00,
2013-09-05 00:20:00,49.3,49.3,29.65,NE,34,0.0,0.0,100,0.00,,,0.00,VWS V13.01,2013-09-05 04:20:00,
2013-09-05 00:26:00,49.3,49.3,29.65,NE,34,0.0,0.0,100,0.00,,,0.00,VWS V13.01,2013-09-05 04:26:00,
2013-09-05 00:32:00,49.5,49.5,29.65,NE,34,0.0,0.0,100,0.00,,,0.00,VWS V13.01,2013-09-05 04:32:00,
2013-09-05 00:38:00,49.3,49.3,29.65,NE,34,0.0,0.0,100,0.00,,,0.00,VWS V13.01,2013-09-05 04:38:00,
2013-09-05 00:44:00,49.3,49.3,29.65,NE,34,0.0,0.0,100,0.00,,,0.00,VWS V13.01,2013-09-05 04:44:00,
2013-09-05 00:50:00,49.1,49.1,29.65,NE,34,0.0,0.0,100,0.00,,,0.00,VWS V13.01,2013-09-05 04:50:00,
2013-09-05 00:56:00,49.3,49.3,29.65,NE,34,0.0,0.0,100,0.00,,,0.00,VWS V13.01,2013-09-05 04:56:00,
2013-09-05 01:02:00,49.5,49.5,29.65,NE,34,0.0,0.0,100,0.00,,,0.00,VWS V13.01,2013-09-05 05:02:00,
2013-09-05 01:08:00,49.3,49.3,29.65,NE,34,0.0,0.0,100,0.00,,,0.00,VWS V13.01,2013-09-05 05:08:00,
2013-09-05 01:14:00,49.1,49.1,29.65,NE,34,0.0,0.0,100,0.00,,,0.00,VWS V13.01,2013-09-05 05:14:00,
2013-09-05 01:20:00,48.7,48.7,29.68,NE,34,0.0,0.0,100,0.00,,,0.00,VWS V13.01,2013-09-05 05:20:00,
2013-09-05 01:26:00,48.9,48.9,29.68,NE,34,0.0,0.0,100,0.00,,,0.00,VWS V13.01,2013-09-05 05:26:00,
2013-09-05 01:32:00,49.3,49.3,29.68,NE,34,0.0,0.0,100,0.00,,,0.00,VWS V13.01,2013-09-05 05:32:00,
2013-09-05 01:38:00,49.3,49.3,29.68,NE,34,0.0,0.0,100,0.00,,,0.00,VWS V13.01,2013-09-05 05:38:00,
2013-09-05 01:44:00,49.5,49.5,29.68,NE,34,0.0,0.0,100,0.00,,,0.00,VWS V13.01,2013-09-05 05:44:00,
2013-09-05 01:50:00,49.5,49.5,29.68,NE,34,0.0,0.0,100,0.00,,,0.00,VWS V13.01,2013-09-05 05:50:00,
2013-09-05 01:56:00,49.6,49.6,29.68,NE,34,0.0,0.0,100,0.00,,,0.00,VWS V13.01,2013-09-05 05:56:00,
2013-09-05 02:02:00,49.8,49.8,29.68,NE,34,0.0,0.0,100,0.00,,,0.00,VWS V13.01,2013-09-05 06:02:00,
2013-09-05 02:08:00,50.0,50.0,29.68,NE,34,0.0,0.0,100,0.00,,,0.00,VWS V13.01,2013-09-05 06:08:00,
2013-09-05 02:14:00,50.2,50.2,29.68,NE,34,0.0,0.0,100,0.00,,,0.00,VWS V13.01,2013-09-05 06:14:00,
2013-09-05 02:20:00,50.2,50.2,29.68,NE,34,0.0,0.0,100,0.00,,,0.00,VWS V13.01,2013-09-05 06:20:00,
2013-09-05 02:26:00,50.2,50.2,29.68,NE,34,0.0,0.0,100,0.00,,,0.00,VWS V13.01,2013-09-05 06:26:00,
2013-09-05 02:32:00,50.4,50.4,29.68,NE,34,0.0,0.0,100,0.00,,,0.00,VWS V13.01,2013-09-05 06:32:00,
2013-09-05 02:38:00,50.5,50.5,29.68,NE,34,0.0,0.0,100,0.00,,,0.00,VWS V13.01,2013-09-05 06:38:00,
2013-09-05 02:44:00,50.5,50.5,29.68,NE,34,0.0,0.0,100,0.00,,,0.00,VWS V13.01,2013-09-05 06:44:00,
2013-09-05 02:50:00,50.5,50.5,29.68,NE,34,0.0,0.0,100,0.00,,,0.00,VWS V13.01,2013-09-05 06:50:00,
2013-09-05 02:56:00,50.5,50.5,29.68,NE,34,0.0,0.0,100,0.00,,,0.00,VWS V13.01,2013-09-05 06:56:00,
2013-09-05 03:02:00,50.5,50.5,29.68,NE,34,0.0,0.0,100,0.00,,,0.00,VWS V13.01,2013-09-05 07:02:00,
2013-09-05 03:08:00,50.5,50.5,29.68,NE,34,0.0,0.0,100,0.00,,,0.00,VWS V13.01,2013-09-05 07:08:00,
2013-09-05 03:14:00,50.5,50.5,29.68,NE,34,0.0,0.0,100,0.00,,,0.00,VWS V13.01,2013-09-05 07:14:00,
2013-09-05 03:20:00,50.7,50.7,29.68,NE,34,0.0,0.0,100,0.00,,,0.00,VWS V13.01,2013-09-05 07:20:00,
2013-09-05 03:26:00,50.5,50.5,29.68,NE,34,0.0,0.0,100,0.00,,,0.00,VWS V13.01,2013-09-05 07:26:00,
2013-09-05 03:32:00,50.5,50.5,29.68,NE,34,0.0,0.0,100,0.00,,,0.00,VWS V13.01,2013-09-05 07:32:00,
2013-09-05 03:38:00,50.5,50.5,29.68,NE,34,0.0,0.0,100,0.00,,,0.00,VWS V13.01,2013-09-05 07:38:00,
2013-09-05 03:44:00,50.5,50.5,29.68,NE,34,0.0,0.0,100,0.00,,,0.00,VWS V13.01,2013-09-05 07:44:00,
2013-09-05 03:50:00,50.5,50.5,29.68,NE,34,0.0,0.0,100,0.00,,,0.00,VWS V13.01,2013-09-05 07:50:00,
2013-09-05 03:56:00,50.4,50.4,29.68,NE,34,0.0,0.0,100,0.00,,,0.00,VWS V13.01,2013-09-05 07:56:00,
2013-09-05 04:02:00,50.2,50.2,29.68,NE,34,0.0,0.0,100,0.00,,,0.00,VWS V13.01,2013-09-05 08:02:00,
2013-09-05 04:08:00,50.2,50.2,29.71,NE,34,0.0,0.0,100,0.00,,,0.00,VWS V13.01,2013-09-05 08:08:00,
2013-09-05 04:14:00,50.2,50.2,29.71,NE,34,0.0,0.0,100,0.00,,,0.00,VWS V13.01,2013-09-05 08:14:00,
2013-09-05 04:20:00,50.2,50.2,29.71,NE,34,0.0,0.0,100,0.00,,,0.00,VWS V13.01,2013-09-05 08:20:00,
2013-09-05 04:26:00,50.2,50.2,29.71,NE,34,0.0,0.0,100,0.00,,,0.00,VWS V13.01,2013-09-05 08:26:00,
2013-09-05 04:32:00,50.2,50.2,29.71,NE,34,0.0,0.0,100,0.00,,,0.00,VWS V13.01,2013-09-05 08:32:00,
2013-09-05 04:38:00,50.4,50.4,29.71,NE,34,0.0,0.0,100,0.00,,,0.00,VWS V13.01,2013-09-05 08:38:00,
2013-09-05 04:44:00,50.2,50.2,29.71,NE,34,0.0,0.0,100,0.00,,,0.00,VWS V13.01,2013-09-05 08:44:00,
2013-09-05 04:50:00,50.2,50.2,29.71,NE,34,0.0,0.0,100,0.00,,,0.00,VWS V13.01,2013-09-05 08:50:00,
2013-09-05 04:56:00,50.2,50.2,29.71,NE,34,0.0,0.0,100,0.00,,,0.00,VWS V13.01,2013-09-05 08:56:00,
2013-09-05 05:02:00,49.8,49.8,29.71,NE,34,0.0,0.0,100,0.00,,,0.00,VWS V13.01,2013-09-05 09:02:00,
2013-09-05 05:08:00,49.8,49.8,29.71,NE,34,0.0,0.0,100,0.00,,,0.00,VWS V13.01,2013-09-05 09:08:00,
2013-09-05 05:14:00,49.1,49.1,29.71,NE,34,0.0,0.0,100,0.00,,,0.00,VWS V13.01,2013-09-05 09:14:00,
2013-09-05 05:20:00,49.3,49.3,29.71,NE,34,0.0,0.0,100,0.00,,,0.00,VWS V13.01,2013-09-05 09:20:00,
2013-09-05 05:26:00,48.7,48.7,29.71,NE,34,0.0,0.0,100,0.00,,,0.00,VWS V13.01,2013-09-05 09:26:00,
2013-09-05 05:32:00,48.0,48.0,29.71,NE,34,0.0,0.0,100,0.00,,,0.00,VWS V13.01,2013-09-05 09:32:00,
2013-09-05 05:38:00,47.8,47.8,29.71,NE,34,0.0,0.0,100,0.00,,,0.00,VWS V13.01,2013-09-05 09:38:00,
2013-09-05 05:44:00,47.3,47.3,29.71,NE,34,0.0,0.0,100,0.00,,,0.00,VWS V13.01,2013-09-05 09:44:00,
2013-09-05 05:50:00,46.8,46.8,29.71,NE,34,0.0,0.0,100,0.00,,,0.00,VWS V13.01,2013-09-05 09:50:00,
2013-09-05 05:56:00,47.1,47.1,29.71,NE,34,0.0,0.0,100,0.00,,,0.00,VWS V13.01,2013-09-05 09:56:00,
2013-09-05 06:02:00,47.1,47.1,29.71,NE,34,0.0,0.0,100,0.00,,,0.00,VWS V13.01,2013-09-05 10:02:00,
2013-09-05 06:08:00,47.3,47.3,29.74,NE,34,0.0,0.0,100,0.00,,,0.00,VWS V13.01,2013-09-05 10:08:00,
2013-09-05 06:14:00,46.8,46.8,29.74,NE,34,0.0,0.0,100,0.00,,,0.00,VWS V13.01,2013-09-05 10:14:00,
2013-09-05 06:20:00,46.2,46.2,29.74,NE,34,0.0,0.0,100,0.00,,,0.00,VWS V13.01,2013-09-05 10:20:00,
2013-09-05 06:26:00,46.6,46.6,29.74,NE,34,0.0,0.0,100,0.00,,,0.00,VWS V13.01,2013-09-05 10:26:00,
2013-09-05 06:32:00,46.2,46.2,29.74,NE,34,0.0,0.0,100,0.00,,,0.00,VWS V13.01,2013-09-05 10:32:00,
2013-09-05 06:38:00,45.9,45.9,29.74,NE,34,0.0,0.0,100,0.00,,,0.00,VWS V13.01,2013-09-05 10:38:00,
2013-09-05 06:44:00,46.0,46.0,29.74,NE,34,0.0,0.0,100,0.00,,,0.00,VWS V13.01,2013-09-05 10:44:00,
2013-09-05 06:50:00,46.0,46.0,29.77,NE,34,0.0,0.0,100,0.00,,,0.00,VWS V13.01,2013-09-05 10:50:00,
2013-09-05 06:56:00,46.2,46.2,29.77,NE,34,0.0,0.0,100,0.00,,,0.00,VWS V13.01,2013-09-05 10:56:00,
2013-09-05 07:02:00,46.2,46.2,29.77,NE,34,0.0,0.0,100,0.00,,,0.00,VWS V13.01,2013-09-05 11:02:00,
2013-09-05 07:08:00,46.8,46.8,29.74,NE,34,0.0,0.0,100,0.00,,,0.00,VWS V13.01,2013-09-05 11:08:00,
2013-09-05 07:14:00,47.5,47.5,29.74,NE,34,0.0,0.0,100,0.00,,,0.00,VWS V13.01,2013-09-05 11:14:00,
2013-09-05 07:20:00,48.2,48.2,29.77,NE,34,0.0,0.0,100,0.00,,,0.00,VWS V13.01,2013-09-05 11:20:00,
2013-09-05 07:26:00,48.4,48.4,29.77,NE,34,0.0,0.0,100,0.00,,,0.00,VWS V13.01,2013-09-05 11:26:00,
2013-09-05 07:32:00,51.8,51.8,29.77,NE,34,0.0,0.0,100,0.00,,,0.00,VWS V13.01,2013-09-05 11:32:00,
2013-09-05 07:38:00,54.1,54.1,29.77,NE,34,0.0,0.0,100,0.00,,,0.00,VWS V13.01,2013-09-05 11:38:00,
2013-09-05 07:44:00,55.6,55.6,29.77,NE,34,0.0,0.0,100,0.00,,,0.00,VWS V13.01,2013-09-05 11:44:00,
2013-09-05 07:50:00,57.2,57.2,29.77,NE,34,0.0,0.0,100,0.00,,,0.00,VWS V13.01,2013-09-05 11:50:00,
2013-09-05 07:56:00,58.6,58.6,29.77,NE,34,0.0,0.0,100,0.00,,,0.00,VWS V13.01,2013-09-05 11:56:00,
2013-09-05 08:02:00,59.7,59.7,29.77,NE,34,0.0,0.0,100,0.00,,,0.00,VWS V13.01,2013-09-05 12:02:00,
2013-09-05 08:08:00,61.0,61.0,29.77,NE,34,0.0,0.0,100,0.00,,,0.00,VWS V13.01,2013-09-05 12:08:00,
2013-09-05 08:14:00,58.8,58.8,29.77,NE,34,0.0,0.0,100,0.00,,,0.00,VWS V13.01,2013-09-05 12:14:00,
2013-09-05 08:20:00,62.4,61.3,29.77,NE,34,0.0,0.0,96,0.00,,,0.00,VWS V13.01,2013-09-05 12:20:00,
2013-09-05 08:26:00,63.5,58.6,29.77,NE,34,0.0,0.0,84,0.00,,,0.00,VWS V13.01,2013-09-05 12:26:00,
2013-09-05 08:32:00,62.2,54.6,29.77,NE,34,0.0,0.0,76,0.00,,,0.00,VWS V13.01,2013-09-05 12:32:00,
2013-09-05 08:38:00,63.5,58.6,29.77,NE,34,0.0,0.0,84,0.00,,,0.00,VWS V13.01,2013-09-05 12:38:00,
2013-09-05 08:44:00,65.1,55.9,29.77,NE,34,0.0,0.0,72,0.00,,,0.00,VWS V13.01,2013-09-05 12:44:00,
2013-09-05 08:50:00,65.7,56.4,29.77,NNE,28,0.0,0.0,72,0.00,,,0.00,VWS V13.01,2013-09-05 12:50:00,
2013-09-05 08:56:00,65.5,56.2,29.77,NNE,28,0.0,0.0,72,0.00,,,0.00,VWS V13.01,2013-09-05 12:56:00,
2013-09-05 09:02:00,66.7,52.4,29.77,NNE,28,0.0,0.0,60,0.00,,,0.00,VWS V13.01,2013-09-05 13:02:00,
2013-09-05 09:08:00,70.0,53.6,29.77,NE,35,0.0,0.0,56,0.00,,,0.00,VWS V13.01,2013-09-05 13:08:00,
2013-09-05 09:14:00,73.2,56.6,29.77,East,101,0.0,0.0,56,0.00,,,0.00,VWS V13.01,2013-09-05 13:14:00,
2013-09-05 09:20:00,68.9,54.5,29.77,East,101,0.0,0.0,60,0.00,,,0.00,VWS V13.01,2013-09-05 13:20:00,
2013-09-05 09:26:00,62.2,49.9,29.77,East,101,0.0,0.0,64,0.00,,,0.00,VWS V13.01,2013-09-05 13:26:00,
2013-09-05 09:32:00,65.3,51.1,29.77,East,101,0.0,0.0,60,0.00,,,0.00,VWS V13.01,2013-09-05 13:32:00,
2013-09-05 09:38:00,71.6,55.1,29.80,East,101,0.0,0.0,56,0.00,,,0.00,VWS V13.01,2013-09-05 13:38:00,
2013-09-05 09:44:00,67.1,52.8,29.80,NE,35,0.0,5.4,60,0.00,,,0.00,VWS V13.01,2013-09-05 13:44:00,
2013-09-05 09:50:00,70.7,54.2,29.80,East,93,0.0,0.0,56,0.00,,,0.00,VWS V13.01,2013-09-05 13:50:00,
2013-09-05 09:56:00,69.8,53.4,29.80,NE,46,0.0,8.1,56,0.00,,,0.00,VWS V13.01,2013-09-05 13:56:00,
2013-09-05 10:02:00,66.4,52.1,29.80,North,353,4.7,10.7,60,0.00,,,0.00,VWS V13.01,2013-09-05 14:02:00,
2013-09-05 10:08:00,67.3,52.9,29.80,North,357,0.0,7.2,60,0.00,,,0.00,VWS V13.01,2013-09-05 14:08:00,
2013-09-05 10:14:00,73.2,56.6,29.80,SE,130,0.0,0.0,56,0.00,,,0.00,VWS V13.01,2013-09-05 14:14:00,
2013-09-05 10:20:00,71.2,54.8,29.80,NNE,24,0.0,11.6,56,0.00,,,0.00,VWS V13.01,2013-09-05 14:20:00,
2013-09-05 10:26:00,71.1,54.6,29.80,South,171,0.0,0.0,56,0.00,,,0.00,VWS V13.01,2013-09-05 14:26:00,
2013-09-05 10:32:00,66.4,52.1,29.80,NW,322,6.0,12.5,60,0.00,,,0.00,VWS V13.01,2013-09-05 14:32:00,
2013-09-05 10:38:00,61.0,48.7,29.80,NE,45,8.1,16.1,64,0.00,,,0.00,VWS V13.01,2013-09-05 14:38:00,
2013-09-05 10:44:00,61.2,48.9,29.80,NE,39,0.0,7.2,64,0.00,,,0.00,VWS V13.01,2013-09-05 14:44:00,
2013-09-05 10:50:00,65.1,50.9,29.80,NE,40,5.4,7.2,60,0.00,,,0.00,VWS V13.01,2013-09-05 14:50:00,
2013-09-05 10:56:00,71.1,54.6,29.80,NE,53,0.0,10.7,56,0.00,,,0.00,VWS V13.01,2013-09-05 14:56:00,
2013-09-05 11:02:00,67.8,53.4,29.80,NNW,332,7.4,14.3,60,0.00,,,0.00,VWS V13.01,2013-09-05 15:02:00,
2013-09-05 11:08:00,64.4,50.2,29.80,NE,51,4.7,15.2,60,0.00,,,0.00,VWS V13.01,2013-09-05 15:08:00,
2013-09-05 11:14:00,63.9,51.5,29.80,NE,55,8.1,15.2,64,0.00,,,0.00,VWS V13.01,2013-09-05 15:14:00,
2013-09-05 11:20:00,65.8,51.6,29.80,NE,43,8.1,12.5,60,0.00,,,0.00,VWS V13.01,2013-09-05 15:20:00,
2013-09-05 11:26:00,67.5,53.1,29.80,NE,47,0.0,12.5,60,0.00,,,0.00,VWS V13.01,2013-09-05 15:26:00,
2013-09-05 11:32:00,63.1,50.8,29.80,NNE,20,7.4,16.6,64,0.00,,,0.00,VWS V13.01,2013-09-05 15:32:00,
2013-09-05 11:38:00,65.7,51.4,29.80,North,11,6.0,15.2,60,0.00,,,0.00,VWS V13.01,2013-09-05 15:38:00,
2013-09-05 11:44:00,66.7,52.4,29.80,NE,47,7.4,15.2,60,0.00,,,0.00,VWS V13.01,2013-09-05 15:44:00,
2013-09-05 11:50:00,64.8,50.6,29.80,NNE,13,4.7,16.1,60,0.00,,,0.00,VWS V13.01,2013-09-05 15:50:00,
2013-09-05 11:56:00,61.9,49.6,29.80,NNE,17,8.7,26.4,64,0.00,,,0.00,VWS V13.01,2013-09-05 15:56:00,
2013-09-05 12:02:00,63.9,51.5,29.80,NE,41,8.1,11.6,64,0.00,,,0.00,VWS V13.01,2013-09-05 16:02:00,
2013-09-05 12:08:00,64.9,50.7,29.80,ENE,78,6.0,11.6,60,0.00,,,0.00,VWS V13.01,2013-09-05 16:08:00,
2013-09-05 12:14:00,62.1,49.8,29.80,NNE,29,6.0,11.6,64,0.00,,,0.00,VWS V13.01,2013-09-05 16:14:00,
2013-09-05 12:20:00,62.8,50.4,29.80,NNE,26,4.0,16.1,64,0.00,,,0.00,VWS V13.01,2013-09-05 16:20:00,
2013-09-05 12:26:00,63.3,51.0,29.80,NW,307,10.7,25.5,64,0.00,,,0.00,VWS V13.01,2013-09-05 16:26:00,
2013-09-05 12:32:00,67.1,52.8,29.80,NNE,12,6.0,15.2,60,0.00,,,0.00,VWS V13.01,2013-09-05 16:32:00,
2013-09-05 12:38:00,65.3,51.1,29.80,NE,43,5.4,12.5,60,0.00,,,0.00,VWS V13.01,2013-09-05 16:38:00,
2013-09-05 12:44:00,66.7,52.4,29.80,SE,127,8.7,12.5,60,0.00,,,0.00,VWS V13.01,2013-09-05 16:44:00,
2013-09-05 12:50:00,66.7,52.4,29.80,ESE,110,4.0,15.2,60,0.00,,,0.00,VWS V13.01,2013-09-05 16:50:00,
2013-09-05 12:56:00,62.6,50.3,29.80,North,357,6.0,27.3,64,0.00,,,0.00,VWS V13.01,2013-09-05 16:56:00,
2013-09-05 13:02:00,66.0,51.8,29.80,NNW,334,4.0,11.6,60,0.00,,,0.00,VWS V13.01,2013-09-05 17:02:00,
2013-09-05 13:08:00,65.1,50.9,29.80,NE,39,8.7,20.1,60,0.00,,,0.00,VWS V13.01,2013-09-05 17:08:00,
2013-09-05 13:14:00,65.3,51.1,29.80,NNE,18,3.4,16.1,60,0.00,,,0.00,VWS V13.01,2013-09-05 17:14:00,
2013-09-05 13:20:00,66.7,52.4,29.77,NE,44,8.7,13.4,60,0.00,,,0.00,VWS V13.01,2013-09-05 17:20:00,
2013-09-05 13:26:00,68.5,54.1,29.77,North,357,4.0,14.3,60,0.00,,,0.00,VWS V13.01,2013-09-05 17:26:00,
2013-09-05 13:32:00,68.5,54.1,29.77,ENE,69,0.0,14.3,60,0.00,,,0.00,VWS V13.01,2013-09-05 17:32:00,
2013-09-05 13:38:00,62.8,50.4,29.80,NNE,29,5.4,17.4,64,0.00,,,0.00,VWS V13.01,2013-09-05 17:38:00,
2013-09-05 13:44:00,67.3,52.9,29.80,NNW,332,8.1,10.7,60,0.00,,,0.00,VWS V13.01,2013-09-05 17:44:00,
2013-09-05 13:50:00,63.5,51.1,29.80,NNE,14,10.7,30.0,64,0.00,,,0.00,VWS V13.01,2013-09-05 17:50:00,
2013-09-05 13:56:00,65.5,51.2,29.80,ENE,68,7.4,14.3,60,0.00,,,0.00,VWS V13.01,2013-09-05 17:56:00,
2013-09-05 14:02:00,66.0,51.8,29.80,North,357,15.1,21.9,60,0.00,,,0.00,VWS V13.01,2013-09-05 18:02:00,
2013-09-05 14:08:00,64.6,50.4,29.80,NNE,20,7.4,34.0,60,0.00,,,0.00,VWS V13.01,2013-09-05 18:08:00,
2013-09-05 14:14:00,67.3,52.9,29.80,North,9,12.1,21.0,60,0.00,,,0.00,VWS V13.01,2013-09-05 18:14:00,
2013-09-05 14:20:00,67.1,52.8,29.80,NE,37,6.0,19.2,60,0.00,,,0.00,VWS V13.01,2013-09-05 18:20:00,
2013-09-05 14:26:00,62.2,49.9,29.80,NE,48,5.4,16.6,64,0.00,,,0.00,VWS V13.01,2013-09-05 18:26:00,
2013-09-05 14:32:00,61.2,48.9,29.80,NE,51,0.0,12.5,64,0.00,,,0.00,VWS V13.01,2013-09-05 18:32:00,
2013-09-05 14:38:00,60.6,50.0,29.80,NE,39,0.0,14.3,68,0.00,,,0.00,VWS V13.01,2013-09-05 18:38:00,
2013-09-05 14:44:00,61.7,49.4,29.80,NE,35,8.7,17.4,64,0.00,,,0.00,VWS V13.01,2013-09-05 18:44:00,
2013-09-05 14:50:00,64.4,50.2,29.80,ENE,73,12.1,20.1,60,0.00,,,0.00,VWS V13.01,2013-09-05 18:50:00,
2013-09-05 14:56:00,65.8,51.6,29.80,NE,36,4.0,16.6,60,0.00,,,0.00,VWS V13.01,2013-09-05 18:56:00,
2013-09-05 15:02:00,63.9,51.5,29.80,SE,126,0.0,19.2,64,0.00,,,0.00,VWS V13.01,2013-09-05 19:02:00,
2013-09-05 15:08:00,67.3,52.9,29.80,SSE,153,6.0,15.2,60,0.00,,,0.00,VWS V13.01,2013-09-05 19:08:00,
2013-09-05 15:14:00,66.9,52.6,29.80,NE,36,10.7,16.6,60,0.00,,,0.00,VWS V13.01,2013-09-05 19:14:00,
2013-09-05 15:20:00,67.5,53.1,29.80,ENE,57,7.4,15.2,60,0.00,,,0.00,VWS V13.01,2013-09-05 19:20:00,
2013-09-05 15:26:00,69.1,54.6,29.80,North,357,8.7,15.2,60,0.00,,,0.00,VWS V13.01,2013-09-05 19:26:00,
2013-09-05 15:32:00,68.7,54.3,29.80,East,95,4.7,20.1,60,0.00,,,0.00,VWS V13.01,2013-09-05 19:32:00,
2013-09-05 15:38:00,65.1,50.9,29.80,NNW,338,13.1,21.0,60,0.00,,,0.00,VWS V13.01,2013-09-05 19:38:00,
2013-09-05 15:44:00,62.6,50.3,29.80,NNE,32,8.7,20.1,64,0.00,,,0.00,VWS V13.01,2013-09-05 19:44:00,
2013-09-05 15:50:00,62.2,49.9,29.80,NNW,328,9.4,20.1,64,0.00,,,0.00,VWS V13.01,2013-09-05 19:50:00,
2013-09-05 15:56:00,69.3,54.8,29.80,NNE,14,7.4,17.4,60,0.00,,,0.00,VWS V13.01,2013-09-05 19:56:00,
2013-09-05 16:02:00,67.5,53.1,29.80,North,0,11.4,18.3,60,0.00,,,0.00,VWS V13.01,2013-09-05 20:02:00,
2013-09-05 16:08:00,65.7,51.4,29.80,NNE,19,8.7,19.2,60,0.00,,,0.00,VWS V13.01,2013-09-05 20:08:00,
2013-09-05 16:14:00,62.1,49.8,29.80,North,5,5.4,16.1,64,0.00,,,0.00,VWS V13.01,2013-09-05 20:14:00,
2013-09-05 16:20:00,66.0,51.8,29.80,NNE,22,10.1,13.4,60,0.00,,,0.00,VWS V13.01,2013-09-05 20:20:00,
2013-09-05 16:26:00,65.8,51.6,29.80,NE,43,4.0,17.4,60,0.00,,,0.00,VWS V13.01,2013-09-05 20:26:00,
2013-09-05 16:32:00,63.0,50.6,29.80,NNE,22,0.0,8.1,64,0.00,,,0.00,VWS V13.01,2013-09-05 20:32:00,
2013-09-05 16:38:00,61.5,49.2,29.80,NE,54,0.0,12.5,64,0.00,,,0.00,VWS V13.01,2013-09-05 20:38:00,
2013-09-05 16:44:00,61.3,49.1,29.80,NNE,24,7.4,11.6,64,0.00,,,0.00,VWS V13.01,2013-09-05 20:44:00,
2013-09-05 16:50:00,62.1,49.8,29.80,North,1,0.0,0.0,64,0.00,,,0.00,VWS V13.01,2013-09-05 20:50:00,
2013-09-05 16:56:00,65.8,51.6,29.80,NW,323,6.0,8.1,60,0.00,,,0.00,VWS V13.01,2013-09-05 20:56:00,
2013-09-05 17:02:00,62.4,50.1,29.80,NNE,33,8.7,13.4,64,0.00,,,0.00,VWS V13.01,2013-09-05 21:02:00,
2013-09-05 17:08:00,63.7,51.3,29.80,NNW,333,0.0,6.3,64,0.00,,,0.00,VWS V13.01,2013-09-05 21:08:00,
2013-09-05 17:14:00,68.7,54.3,29.80,NE,34,0.0,14.3,60,0.00,,,0.00,VWS V13.01,2013-09-05 21:14:00,
2013-09-05 17:20:00,69.8,53.4,29.80,NNE,33,6.0,10.7,56,0.00,,,0.00,VWS V13.01,2013-09-05 21:20:00,
2013-09-05 17:26:00,71.1,54.6,29.80,East,86,4.0,15.2,56,0.00,,,0.00,VWS V13.01,2013-09-05 21:26:00,
2013-09-05 17:32:00,72.9,56.3,29.80,North,357,4.0,6.3,56,0.00,,,0.00,VWS V13.01,2013-09-05 21:32:00,
2013-09-05 17:38:00,68.4,54.0,29.80,NE,46,0.0,8.1,60,0.00,,,0.00,VWS V13.01,2013-09-05 21:38:00,
2013-09-05 17:44:00,70.5,54.1,29.80,NE,41,9.4,12.5,56,0.00,,,0.00,VWS V13.01,2013-09-05 21:44:00,
2013-09-05 17:50:00,69.4,55.0,29.83,North,7,0.0,10.7,60,0.00,,,0.00,VWS V13.01,2013-09-05 21:50:00,
2013-09-05 17:56:00,60.8,48.6,29.83,NNE,14,11.4,20.1,64,0.00,,,0.00,VWS V13.01,2013-09-05 21:56:00,
2013-09-05 18:02:00,64.4,50.2,29.83,North,10,4.0,17.4,60,0.00,,,0.00,VWS V13.01,2013-09-05 22:02:00,
2013-09-05 18:08:00,60.4,49.8,29.83,NE,38,0.0,9.8,68,0.00,,,0.00,VWS V13.01,2013-09-05 22:08:00,
2013-09-05 18:14:00,59.7,49.2,29.83,North,8,6.0,15.2,68,0.00,,,0.00,VWS V13.01,2013-09-05 22:14:00,
2013-09-05 18:20:00,64.2,51.8,29.83,North,9,3.4,12.5,64,0.00,,,0.00,VWS V13.01,2013-09-05 22:20:00,
2013-09-05 18:26:00,64.2,51.8,29.83,NNE,33,5.4,12.5,64,0.00,,,0.00,VWS V13.01,2013-09-05 22:26:00,
2013-09-05 18:32:00,62.6,50.3,29.83,North,357,0.0,20.1,64,0.00,,,0.00,VWS V13.01,2013-09-05 22:32:00,
2013-09-05 18:38:00,59.7,49.2,29.83,North,11,4.0,12.5,68,0.00,,,0.00,VWS V13.01,2013-09-05 22:38:00,
2013-09-05 18:44:00,58.3,47.8,29.83,NNE,14,4.7,12.5,68,0.00,,,0.00,VWS V13.01,2013-09-05 22:44:00,
2013-09-05 18:50:00,58.5,48.0,29.83,North,7,4.7,11.6,68,0.00,,,0.00,VWS V13.01,2013-09-05 22:50:00,
2013-09-05 18:56:00,57.9,47.4,29.83,NNE,23,7.4,11.6,68,0.00,,,0.00,VWS V13.01,2013-09-05 22:56:00,
2013-09-05 19:02:00,58.3,47.8,29.83,NE,37,0.0,9.8,68,0.00,,,0.00,VWS V13.01,2013-09-05 23:02:00,
2013-09-05 19:08:00,58.6,48.1,29.83,NNW,346,3.4,11.6,68,0.00,,,0.00,VWS V13.01,2013-09-05 23:08:00,
2013-09-05 19:14:00,57.4,46.9,29.83,NNE,31,4.0,8.1,68,0.00,,,0.00,VWS V13.01,2013-09-05 23:14:00,
2013-09-05 19:20:00,55.4,45.0,29.83,NNE,27,0.0,7.2,68,0.00,,,0.00,VWS V13.01,2013-09-05 23:20:00,
2013-09-05 19:26:00,54.0,45.2,29.83,North,8,0.0,0.0,72,0.00,,,0.00,VWS V13.01,2013-09-05 23:26:00,
2013-09-05 19:32:00,53.1,44.3,29.83,North,0,0.0,4.5,72,0.00,,,0.00,VWS V13.01,2013-09-05 23:32:00,
2013-09-05 19:38:00,51.8,43.1,29.83,North,9,0.0,0.0,72,0.00,,,0.00,VWS V13.01,2013-09-05 23:38:00,
2013-09-05 19:44:00,50.9,43.6,29.83,North,3,0.0,0.0,76,0.00,,,0.00,VWS V13.01,2013-09-05 23:44:00,
2013-09-05 19:50:00,49.8,42.6,29.85,North,3,0.0,0.0,76,0.00,,,0.00,VWS V13.01,2013-09-05 23:50:00,
2013-09-05 19:56:00,49.1,41.9,29.85,North,3,0.0,0.0,76,0.00,,,0.00,VWS V13.01,2013-09-05 23:56:00,
2013-09-05 20:02:00,48.6,41.3,29.85,North,3,0.0,0.0,76,0.00,,,0.00,VWS V13.01,2013-09-06 00:02:00,
2013-09-05 20:08:00,47.8,40.7,29.85,North,3,0.0,0.0,76,0.00,,,0.00,VWS V13.01,2013-09-06 00:08:00,
2013-09-05 20:14:00,47.1,46.0,29.85,North,3,0.0,0.0,96,0.00,,,0.00,VWS V13.01,2013-09-06 00:14:00,
2013-09-05 20:20:00,47.3,47.3,29.85,North,3,0.0,0.0,100,0.00,,,0.00,VWS V13.01,2013-09-06 00:20:00,
2013-09-05 20:26:00,46.9,46.9,29.85,North,3,0.0,0.0,100,0.00,,,0.00,VWS V13.01,2013-09-06 00:26:00,
2013-09-05 20:32:00,46.8,46.8,29.85,North,3,0.0,0.0,100,0.00,,,0.00,VWS V13.01,2013-09-06 00:32:00,
2013-09-05 20:38:00,46.2,46.2,29.85,North,3,0.0,0.0,100,0.00,,,0.00,VWS V13.01,2013-09-06 00:38:00,
2013-09-05 20:44:00,45.9,45.9,29.85,North,3,0.0,0.0,100,0.00,,,0.00,VWS V13.01,2013-09-06 00:44:00,
2013-09-05 20:50:00,46.4,46.4,29.85,North,3,0.0,0.0,100,0.00,,,0.00,VWS V13.01,2013-09-06 00:50:00,
2013-09-05 20:56:00,46.6,46.6,29.85,North,3,0.0,0.0,100,0.00,,,0.00,VWS V13.01,2013-09-06 00:56:00,
2013-09-05 21:02:00,46.0,46.0,29.85,North,3,0.0,0.0,100,0.00,,,0.00,VWS V13.01,2013-09-06 01:02:00,
2013-09-05 21:08:00,45.7,45.7,29.88,North,3,0.0,0.0,100,0.00,,,0.00,VWS V13.01,2013-09-06 01:08:00,
2013-09-05 21:14:00,45.9,45.9,29.88,North,3,0.0,0.0,100,0.00,,,0.00,VWS V13.01,2013-09-06 01:14:00,
2013-09-05 21:20:00,45.5,45.5,29.85,North,3,0.0,0.0,100,0.00,,,0.00,VWS V13.01,2013-09-06 01:20:00,
2013-09-05 21:26:00,45.7,45.7,29.85,North,3,0.0,0.0,100,0.00,,,0.00,VWS V13.01,2013-09-06 01:26:00,
2013-09-05 21:32:00,45.5,45.5,29.85,North,3,0.0,0.0,100,0.00,,,0.00,VWS V13.01,2013-09-06 01:32:00,
2013-09-05 21:38:00,45.3,45.3,29.88,North,3,0.0,0.0,100,0.00,,,0.00,VWS V13.01,2013-09-06 01:38:00,
2013-09-05 21:44:00,46.2,46.2,29.88,North,3,0.0,0.0,100,0.00,,,0.00,VWS V13.01,2013-09-06 01:44:00,
2013-09-05 21:50:00,46.2,46.2,29.88,North,11,0.0,4.5,100,0.00,,,0.00,VWS V13.01,2013-09-06 01:50:00,
2013-09-05 21:56:00,45.9,45.9,29.88,North,11,0.0,4.5,100,0.00,,,0.00,VWS V13.01,2013-09-06 01:56:00,
2013-09-05 22:02:00,45.9,45.9,29.88,North,11,0.0,0.0,100,0.00,,,0.00,VWS V13.01,2013-09-06 02:02:00,
2013-09-05 22:08:00,45.5,45.5,29.88,North,11,0.0,0.0,100,0.00,,,0.00,VWS V13.01,2013-09-06 02:08:00,
2013-09-05 22:14:00,44.6,44.6,29.88,North,11,0.0,0.0,100,0.00,,,0.00,VWS V13.01,2013-09-06 02:14:00,
2013-09-05 22:20:00,44.2,44.2,29.88,North,11,0.0,0.0,100,0.00,,,0.00,VWS V13.01,2013-09-06 02:20:00,
2013-09-05 22:26:00,43.9,43.9,29.88,North,11,0.0,0.0,100,0.00,,,0.00,VWS V13.01,2013-09-06 02:26:00,
2013-09-05 22:32:00,43.5,43.5,29.88,NNE,12,0.0,0.0,100,0.00,,,0.00,VWS V13.01,2013-09-06 02:32:00,
2013-09-05 22:38:00,43.9,43.9,29.88,NNE,12,0.0,0.0,100,0.00,,,0.00,VWS V13.01,2013-09-06 02:38:00,
2013-09-05 22:44:00,43.7,43.7,29.88,NNE,12,0.0,0.0,100,0.00,,,0.00,VWS V13.01,2013-09-06 02:44:00,
2013-09-05 22:50:00,43.3,43.3,29.88,NNE,12,0.0,0.0,100,0.00,,,0.00,VWS V13.01,2013-09-06 02:50:00,
2013-09-05 22:56:00,43.0,43.0,29.88,NNE,12,0.0,0.0,100,0.00,,,0.00,VWS V13.01,2013-09-06 02:56:00,
2013-09-05 23:02:00,42.4,42.4,29.88,NNE,12,0.0,0.0,100,0.00,,,0.00,VWS V13.01,2013-09-06 03:02:00,
2013-09-05 23:08:00,42.3,42.3,29.88,NNE,12,0.0,0.0,100,0.00,,,0.00,VWS V13.01,2013-09-06 03:08:00,
2013-09-05 23:14:00,41.9,41.9,29.88,NNE,12,0.0,0.0,100,0.00,,,0.00,VWS V13.01,2013-09-06 03:14:00,
2013-09-05 23:20:00,42.1,42.1,29.88,NNE,12,0.0,0.0,100,0.00,,,0.00,VWS V13.01,2013-09-06 03:20:00,
2013-09-05 23:26:00,42.1,42.1,29.88,NNE,12,0.0,0.0,100,0.00,,,0.00,VWS V13.01,2013-09-06 03:26:00,
2013-09-05 23:32:00,41.4,41.4,29.88,NNE,12,0.0,0.0,100,0.00,,,0.00,VWS V13.01,2013-09-06 03:32:00,
2013-09-05 23:38:00,41.2,41.2,29.88,NNE,12,0.0,0.0,100,0.00,,,0.00,VWS V13.01,2013-09-06 03:38:00,
2013-09-05 23:44:00,41.0,41.0,29.88,NNE,12,0.0,0.0,100,0.00,,,0.00,VWS V13.01,2013-09-06 03:44:00,
2013-09-05 23:50:00,41.7,41.7,29.88,North,11,0.0,0.0,100,0.00,,,0.00,VWS V13.01,2013-09-06 03:50:00,
2013-09-05 23:56:00,41.4,41.4,29.88,North,11,0.0,0.0,100,0.00,,,0.00,VWS V13.01,2013-09-06 03:56:00,